Time;durP1;ratioP1;P1;durP2;ratioP2;P2;SDS_P1;SDS_P2;PMS_P1;PMS_P2;Temp;Humidity;BMP_temperature;BMP_pressure;BME280_temperature;BME280_humidity;BME280_pressure;Samples;Min_cycle;Max_cycle;Signal;HPM_P1;HPM_P2
2023/01/11 00:00:13;;;;;;;1.37;1.33;;;;;;;7.67;nan;100747.84;6222607;28;20233;-71
2023/01/11 00:03:36;;;;;;;2.70;1.77;;;;;;;7.38;nan;100779.63;6208901;28;20231;-71
2023/01/11 00:06:57;;;;;;;2.87;1.37;;;;;;;7.60;nan;100733.19;6205256;28;20494;-71
2023/01/11 00:10:19;;;;;;;1.70;1.57;;;;;;;7.68;nan;100746.84;6201512;28;20328;-70
2023/01/11 00:13:40;;;;;;;1.80;1.30;;;;;;;7.35;nan;100753.03;6191314;28;20228;-70
2023/01/11 00:17:01;;;;;;;4.57;1.97;;;;;;;7.89;nan;100729.91;6186179;28;20315;-70
2023/01/11 00:20:23;;;;;;;1.57;1.17;;;;;;;7.91;nan;100736.00;6199708;28;20313;-70
2023/01/11 00:23:44;;;;;;;2.90;1.57;;;;;;;7.63;nan;100724.91;6191998;28;20264;-70
2023/01/11 00:27:05;;;;;;;2.07;1.37;;;;;;;7.76;nan;100734.53;6180964;28;20241;-71
2023/01/11 00:30:25;;;;;;;5.03;2.57;;;;;;;7.77;nan;100719.31;6192900;28;20241;-70
2023/01/11 00:33:46;;;;;;;4.20;2.33;;;;;;;8.06;nan;100705.25;6186135;28;20240;-70
2023/01/11 00:37:09;;;;;;;4.30;1.60;;;;;;;7.51;nan;100728.56;6176268;28;20303;-71
2023/01/11 00:40:31;;;;;;;2.93;1.80;;;;;;;7.73;nan;100694.56;6190160;28;20225;-71
2023/01/11 00:51:09;;;;;;;4.30;2.83;;;;;;;7.70;nan;100673.31;6195322;28;20800;-71
2023/01/11 00:54:31;;;;;;;1.20;1.10;;;;;;;7.79;nan;100661.84;6176999;28;20253;-71
2023/01/11 00:57:52;;;;;;;4.07;1.30;;;;;;;7.95;nan;100661.44;6190907;28;20256;-71
2023/01/11 01:01:13;;;;;;;1.40;1.30;;;;;;;8.02;nan;100662.66;6191127;28;20276;-70
2023/01/11 01:04:34;;;;;;;6.03;2.03;;;;;;;7.90;nan;100648.44;6191912;28;20308;-70
2023/01/11 01:07:55;;;;;;;5.00;1.40;;;;;;;7.97;nan;100648.75;6198390;28;20237;-70
2023/01/11 01:11:17;;;;;;;1.57;1.30;;;;;;;7.81;nan;100641.13;6185039;28;20237;-71
2023/01/11 01:14:37;;;;;;;1.70;1.50;;;;;;;7.82;nan;100648.19;6196905;28;20238;-70
2023/01/11 01:17:58;;;;;;;2.67;1.80;;;;;;;7.87;nan;100639.75;6210531;28;20648;-71
2023/01/11 01:21:19;;;;;;;1.70;1.60;;;;;;;7.95;nan;100637.28;6205852;28;20661;-71
2023/01/11 01:24:40;;;;;;;1.87;1.77;;;;;;;7.85;nan;100623.78;6208983;28;20317;-71
2023/01/11 01:28:02;;;;;;;3.30;1.13;;;;;;;7.77;nan;100622.72;6207977;28;20311;-70
2023/01/11 01:31:23;;;;;;;1.57;1.47;;;;;;;7.97;nan;100617.41;6189475;28;20582;-70
2023/01/11 01:34:44;;;;;;;2.27;1.63;;;;;;;7.89;nan;100606.47;6182768;28;20244;-70
2023/01/11 01:38:05;;;;;;;1.73;1.30;;;;;;;8.13;nan;100605.41;6172861;28;20237;-71
2023/01/11 01:41:26;;;;;;;2.23;2.03;;;;;;;8.02;nan;100609.00;6195783;28;20237;-69
2023/01/11 01:45:05;;;;;;;1.23;1.20;;;;;;;7.87;nan;100578.91;6186828;28;20233;-71
2023/01/11 01:48:27;;;;;;;0.80;0.80;;;;;;;7.92;nan;100603.53;6209478;28;20783;-70
2023/01/11 01:51:51;;;;;;;3.93;1.43;;;;;;;7.84;nan;100597.91;6182992;28;20808;-71
2023/01/11 01:55:17;;;;;;;2.20;1.43;;;;;;;7.93;nan;100583.75;6212501;28;21378;-71
2023/01/11 01:58:44;;;;;;;1.07;1.00;;;;;;;8.07;nan;100596.06;6217530;28;20240;-71
2023/01/11 02:02:06;;;;;;;1.20;1.10;;;;;;;8.03;nan;100582.00;6205604;28;20467;-70
2023/01/11 02:05:27;;;;;;;1.03;0.90;;;;;;;8.13;nan;100578.56;6211696;28;20230;-71
2023/01/11 02:08:56;;;;;;;1.60;1.50;;;;;;;7.97;nan;100566.41;6211742;28;20225;-71
2023/01/11 02:12:18;;;;;;;2.23;1.70;;;;;;;8.11;nan;100557.22;6178848;28;20886;-71
2023/01/11 02:15:39;;;;;;;2.83;1.60;;;;;;;8.03;nan;100555.16;6200384;28;20491;-70
2023/01/11 02:19:01;;;;;;;13.27;2.97;;;;;;;8.22;nan;100562.53;6194880;28;20614;-70
2023/01/11 02:22:55;;;;;;;4.57;1.63;;;;;;;8.25;nan;100550.69;6187787;28;20727;-71
2023/01/11 02:26:52;;;;;;;1.07;1.07;;;;;;;8.24;nan;100543.63;6191395;28;21077;-70
2023/01/11 02:30:24;;;;;;;2.00;0.93;;;;;;;8.19;nan;100551.19;6190764;28;20222;-72
2023/01/11 02:33:56;;;;;;;1.70;0.90;;;;;;;8.19;nan;100538.63;6188741;28;20324;-70
2023/01/11 02:37:28;;;;;;;1.10;1.00;;;;;;;8.11;nan;100534.91;6194811;28;20555;-71
2023/01/11 02:40:56;;;;;;;0.67;0.67;;;;;;;8.23;nan;100532.03;6191164;28;20229;-70
2023/01/11 02:48:13;;;;;;;0.60;0.60;;;;;;;8.15;nan;100525.59;6210644;28;20231;-70
2023/01/11 02:51:40;;;;;;;1.70;0.80;;;;;;;8.39;nan;100513.66;6198584;28;20240;-71
2023/01/11 02:55:03;;;;;;;1.00;1.00;;;;;;;8.60;nan;100514.50;6194262;28;20324;-70
2023/01/11 02:58:28;;;;;;;0.80;0.73;;;;;;;8.41;nan;100508.13;6196169;28;20225;-70
2023/01/11 03:01:51;;;;;;;0.70;0.70;;;;;;;8.49;nan;100505.69;6181344;28;20246;-70
2023/01/11 03:05:14;;;;;;;0.77;0.77;;;;;;;8.51;nan;100514.44;6225277;28;20229;-71
2023/01/11 03:09:14;;;;;;;0.70;0.70;;;;;;;8.49;nan;100519.09;6208663;28;20645;-71
2023/01/11 03:12:54;;;;;;;2.87;1.53;;;;;;;8.58;nan;100531.72;6197665;28;20617;-71
2023/01/11 03:16:24;;;;;;;0.80;0.70;;;;;;;8.61;nan;100520.72;6190190;28;20228;-71
2023/01/11 03:19:51;;;;;;;1.07;0.90;;;;;;;8.61;nan;100516.22;6216475;28;20227;-71
2023/01/11 03:23:21;;;;;;;1.03;0.93;;;;;;;8.76;nan;100493.38;6206015;28;20335;-71
2023/01/11 03:26:53;;;;;;;0.80;0.80;;;;;;;8.68;nan;100512.00;6180863;28;20674;-70
2023/01/11 03:30:23;;;;;;;1.87;0.90;;;;;;;8.85;nan;100494.41;6195387;28;20804;-70
2023/01/11 03:33:54;;;;;;;0.77;0.77;;;;;;;8.75;nan;100502.44;6185034;28;20224;-71
2023/01/11 03:37:23;;;;;;;7.30;0.80;;;;;;;8.70;nan;100488.53;6182085;28;20236;-69
2023/01/11 03:40:49;;;;;;;0.53;0.53;;;;;;;8.69;nan;100500.28;6192989;28;20229;-70
2023/01/11 03:44:14;;;;;;;0.50;0.50;;;;;;;8.66;nan;100505.03;6207051;28;20228;-71
2023/01/11 03:47:35;;;;;;;1.30;1.20;;;;;;;8.85;nan;100499.78;6188777;28;20241;-71
2023/01/11 03:50:59;;;;;;;0.70;0.70;;;;;;;8.69;nan;100491.34;6194676;28;20249;-71
2023/01/11 03:54:23;;;;;;;2.23;0.80;;;;;;;8.82;nan;100479.38;6181534;28;20241;-70
2023/01/11 03:57:50;;;;;;;1.97;0.63;;;;;;;8.88;nan;100471.78;6190605;28;20232;-71
2023/01/11 04:01:13;;;;;;;0.77;0.77;;;;;;;8.71;nan;100471.44;6192471;28;20229;-72
2023/01/11 04:04:34;;;;;;;0.60;0.60;;;;;;;8.76;nan;100474.56;6183165;28;20730;-71
2023/01/11 04:07:55;;;;;;;0.60;0.60;;;;;;;8.72;nan;100474.94;6213052;28;20232;-71
2023/01/11 04:11:15;;;;;;;0.97;0.77;;;;;;;8.76;nan;100465.66;6209590;28;20240;-71
2023/01/11 04:14:38;;;;;;;0.73;0.73;;;;;;;8.70;nan;100464.34;6203095;28;21138;-71
2023/01/11 04:18:03;;;;;;;0.73;0.73;;;;;;;8.85;nan;100460.31;6194338;28;20232;-72
2023/01/11 04:21:24;;;;;;;0.43;0.43;;;;;;;8.64;nan;100454.13;6187795;28;20226;-72
2023/01/11 04:24:45;;;;;;;0.63;0.63;;;;;;;8.78;nan;100448.38;6188957;28;20233;-71
2023/01/11 04:28:06;;;;;;;1.10;1.10;;;;;;;8.97;nan;100428.78;6184555;28;22260;-71
2023/01/11 04:31:28;;;;;;;3.87;0.70;;;;;;;8.82;nan;100440.94;6179568;28;20631;-71
2023/01/11 04:34:50;;;;;;;0.50;0.50;;;;;;;9.19;nan;100443.84;6179492;28;20461;-71
2023/01/11 04:38:11;;;;;;;0.50;0.50;;;;;;;9.03;nan;100440.84;6185313;28;20228;-71
2023/01/11 04:45:10;;;;;;;0.50;0.50;;;;;;;9.07;nan;100439.59;6200869;28;20812;-71
2023/01/11 04:48:33;;;;;;;0.50;0.50;;;;;;;8.99;nan;100445.63;6190725;28;20228;-71
2023/01/11 04:51:54;;;;;;;1.90;0.87;;;;;;;9.04;nan;100443.41;6179276;28;20241;-70
2023/01/11 04:55:15;;;;;;;0.70;0.60;;;;;;;9.09;nan;100437.63;6192659;28;21501;-71
2023/01/11 04:58:36;;;;;;;0.70;0.70;;;;;;;8.99;nan;100448.31;6209656;28;20232;-70
2023/01/11 05:01:56;;;;;;;0.53;0.53;;;;;;;8.97;nan;100441.41;6174388;28;20810;-71
2023/01/11 05:05:19;;;;;;;0.50;0.50;;;;;;;9.16;nan;100436.91;6205017;28;20241;-71
2023/01/11 05:08:40;;;;;;;0.90;0.70;;;;;;;9.10;nan;100437.47;6194271;28;20316;-71
2023/01/11 05:12:01;;;;;;;0.80;0.80;;;;;;;9.19;nan;100442.03;6206503;28;20239;-70
2023/01/11 05:15:22;;;;;;;0.60;0.60;;;;;;;9.23;nan;100456.03;6225095;28;20252;-70
2023/01/11 05:18:44;;;;;;;0.50;0.50;;;;;;;9.34;nan;100442.47;6223492;28;20263;-70
2023/01/11 05:22:06;;;;;;;2.00;1.57;;;;;;;9.19;nan;100452.78;6218231;28;20240;-72
2023/01/11 05:25:27;;;;;;;0.40;0.40;;;;;;;9.25;nan;100451.38;6207097;28;20257;-72
2023/01/11 05:28:47;;;;;;;0.50;0.50;;;;;;;9.37;nan;100440.34;6192084;28;20323;-72
2023/01/11 05:32:11;;;;;;;0.67;0.67;;;;;;;9.36;nan;100444.06;6182413;28;21541;-71
2023/01/11 05:35:31;;;;;;;0.70;0.70;;;;;;;9.58;nan;100437.53;6193303;28;20796;-70
2023/01/11 05:38:55;;;;;;;0.80;0.80;;;;;;;9.53;nan;100431.75;6204325;28;20232;-70
2023/01/11 05:42:16;;;;;;;0.97;0.97;;;;;;;9.48;nan;100442.06;6192402;28;20252;-71
2023/01/11 05:45:37;;;;;;;0.40;0.40;;;;;;;9.53;nan;100434.44;6209641;28;20229;-71
2023/01/11 05:48:58;;;;;;;0.77;0.77;;;;;;;9.68;nan;100432.19;6218243;28;20233;-70
2023/01/11 05:52:19;;;;;;;0.57;0.50;;;;;;;9.74;nan;100440.56;6184299;28;20253;-70
2023/01/11 05:55:51;;;;;;;1.50;0.67;;;;;;;9.81;nan;100441.66;6195700;28;20229;-70
2023/01/11 05:59:13;;;;;;;0.40;0.40;;;;;;;9.73;nan;100440.66;6198344;28;20261;-71
2023/01/11 06:02:34;;;;;;;1.13;1.13;;;;;;;9.89;nan;100435.59;6182264;28;20600;-71
2023/01/11 06:05:55;;;;;;;2.00;0.90;;;;;;;9.75;nan;100444.94;6185870;28;20233;-70
2023/01/11 06:09:16;;;;;;;0.30;0.30;;;;;;;9.84;nan;100444.09;6196248;28;20728;-71
2023/01/11 06:12:38;;;;;;;1.60;1.23;;;;;;;9.94;nan;100446.75;6186925;28;20258;-70
2023/01/11 06:16:01;;;;;;;0.50;0.50;;;;;;;9.89;nan;100449.06;6219000;28;20240;-70
2023/01/11 06:19:22;;;;;;;0.50;0.50;;;;;;;9.91;nan;100449.75;6212572;28;20316;-71
2023/01/11 06:22:42;;;;;;;0.70;0.70;;;;;;;10.05;nan;100438.53;6193221;28;20233;-70
2023/01/11 06:26:05;;;;;;;0.63;0.63;;;;;;;10.10;nan;100450.59;6202302;28;20667;-70
2023/01/11 06:29:27;;;;;;;0.70;0.70;;;;;;;9.89;nan;100446.34;6190290;28;20615;-71
2023/01/11 06:32:48;;;;;;;0.90;0.90;;;;;;;9.99;nan;100441.81;6186576;28;20359;-70
2023/01/11 06:36:11;;;;;;;0.60;0.60;;;;;;;10.25;nan;100440.22;6195297;28;20504;-68
2023/01/11 06:39:32;;;;;;;0.50;0.50;;;;;;;10.04;nan;100461.06;6200841;28;20614;-72
2023/01/11 06:42:53;;;;;;;0.90;0.90;;;;;;;10.14;nan;100435.00;6194994;28;20263;-71
2023/01/11 06:46:17;;;;;;;0.50;0.50;;;;;;;10.22;nan;100438.66;6187841;28;20241;-71
2023/01/11 06:49:38;;;;;;;0.50;0.50;;;;;;;10.45;nan;100429.25;6197596;28;25486;-71
2023/01/11 06:53:00;;;;;;;0.53;0.50;;;;;;;10.35;nan;100452.69;6214199;28;20263;-71
2023/01/11 06:56:22;;;;;;;0.90;0.90;;;;;;;10.77;nan;100436.09;6209212;28;20240;-70
2023/01/11 06:59:43;;;;;;;0.60;0.60;;;;;;;10.73;nan;100446.34;6200214;28;20233;-71
2023/01/11 07:03:06;;;;;;;1.27;0.70;;;;;;;10.58;nan;100460.41;6192590;28;20268;-72
2023/01/11 07:06:30;;;;;;;0.90;0.63;;;;;;;10.59;nan;100460.28;6185503;28;21625;-69
2023/01/11 07:09:53;;;;;;;0.87;0.87;;;;;;;10.66;nan;100460.56;6206725;28;20229;-69
2023/01/11 07:13:17;;;;;;;0.50;0.50;;;;;;;10.59;nan;100454.91;6207831;28;20861;-75
2023/01/11 07:16:39;;;;;;;0.57;0.57;;;;;;;10.78;nan;100467.47;6190879;28;20232;-76
2023/01/11 07:20:01;;;;;;;0.50;0.50;;;;;;;10.62;nan;100476.16;6210975;28;20320;-78
2023/01/11 07:23:22;;;;;;;0.60;0.60;;;;;;;10.70;nan;100481.66;6199418;28;20429;-76
2023/01/11 07:26:42;;;;;;;3.27;1.10;;;;;;;10.79;nan;100474.53;6183750;28;20234;-74
2023/01/11 07:30:03;;;;;;;1.33;1.10;;;;;;;10.90;nan;100483.31;6197482;28;20237;-73
2023/01/11 07:33:27;;;;;;;0.90;0.90;;;;;;;10.76;nan;100485.63;6193687;28;20243;-75
2023/01/11 07:36:49;;;;;;;1.03;1.00;;;;;;;10.78;nan;100475.56;6181868;28;20564;-74
2023/01/11 07:40:11;;;;;;;0.50;0.50;;;;;;;10.78;nan;100494.44;6192030;28;20237;-74
2023/01/11 07:43:32;;;;;;;1.07;0.93;;;;;;;10.85;nan;100487.44;6200212;28;20236;-74
2023/01/11 07:46:53;;;;;;;1.20;1.20;;;;;;;10.94;nan;100491.94;6172830;28;20241;-69
2023/01/11 07:50:13;;;;;;;0.77;0.77;;;;;;;10.92;nan;100493.94;6181964;28;20229;-71
2023/01/11 07:53:38;;;;;;;0.70;0.60;;;;;;;10.92;nan;100494.81;6186335;28;20610;-73
2023/01/11 07:56:58;;;;;;;0.80;0.80;;;;;;;10.97;nan;100492.50;6182362;28;20241;-74
2023/01/11 08:00:20;;;;;;;0.93;0.93;;;;;;;10.85;nan;100500.91;6187623;28;20233;-73
2023/01/11 08:03:42;;;;;;;1.27;1.17;;;;;;;10.95;nan;100497.19;6190265;28;20519;-72
2023/01/11 08:07:02;;;;;;;1.60;0.83;;;;;;;10.98;nan;100499.59;6173049;28;20758;-72
2023/01/11 08:10:24;;;;;;;1.07;0.97;;;;;;;10.86;nan;100508.88;6193882;28;20241;-71
2023/01/11 08:17:23;;;;;;;1.87;0.67;;;;;;;10.91;nan;100516.53;6185559;28;20235;-72
2023/01/11 08:20:46;;;;;;;1.13;1.13;;;;;;;11.19;nan;100524.50;6190440;28;20222;-71
2023/01/11 08:24:07;;;;;;;1.13;1.07;;;;;;;11.16;nan;100523.94;6193802;28;20260;-72
2023/01/11 08:27:29;;;;;;;1.00;0.90;;;;;;;11.09;nan;100534.50;6175529;28;20331;-71
2023/01/11 08:30:50;;;;;;;1.00;1.00;;;;;;;11.23;nan;100547.50;6174202;28;20272;-69
2023/01/11 08:34:11;;;;;;;1.10;1.10;;;;;;;11.34;nan;100540.19;6178764;28;20224;-71
2023/01/11 08:37:32;;;;;;;1.60;1.50;;;;;;;11.30;nan;100545.06;6185644;28;20622;-70
2023/01/11 08:40:53;;;;;;;0.97;0.97;;;;;;;11.21;nan;100549.50;6202880;28;20228;-71
2023/01/11 08:44:16;;;;;;;2.47;1.20;;;;;;;11.50;nan;100548.50;6182677;28;20815;-71
2023/01/11 08:47:37;;;;;;;1.70;1.60;;;;;;;11.58;nan;100543.19;6200059;28;20243;-72
2023/01/11 08:50:58;;;;;;;2.60;2.40;;;;;;;11.45;nan;100550.81;6206004;28;20232;-71
2023/01/11 08:54:19;;;;;;;1.67;1.30;;;;;;;11.50;nan;100548.50;6191991;28;20237;-71
2023/01/11 08:57:39;;;;;;;2.30;2.10;;;;;;;11.41;nan;100549.41;6226371;28;20236;-72
2023/01/11 09:01:03;;;;;;;2.33;2.13;;;;;;;11.50;nan;100537.69;6227165;28;20232;-71
2023/01/11 09:04:24;;;;;;;2.10;1.93;;;;;;;11.39;nan;100556.81;6232501;28;20232;-72
2023/01/11 09:07:45;;;;;;;6.97;2.67;;;;;;;11.34;nan;100573.44;6212985;28;20243;-75
2023/01/11 09:11:52;;;;;;;0.90;0.90;;;;;;;11.51;nan;100572.66;6191044;28;20233;-73
2023/01/11 09:14:46;;;;;;;1.10;1.00;;;;;;;11.39;nan;100592.72;6215144;28;20224;-73
2023/01/11 09:18:09;;;;;;;1.70;1.60;;;;;;;11.37;nan;100615.47;6196818;28;20968;-71
2023/01/11 09:21:30;;;;;;;1.80;1.70;;;;;;;11.31;nan;100598.00;6215698;28;20783;-73
2023/01/11 09:24:51;;;;;;;3.30;1.10;;;;;;;10.97;nan;100592.28;6199891;28;20233;-73
2023/01/11 09:28:12;;;;;;;1.93;1.73;;;;;;;11.15;nan;100601.34;6178522;28;20237;-71
2023/01/11 09:31:33;;;;;;;1.47;1.37;;;;;;;11.06;nan;100591.41;6174585;28;20237;-72
2023/01/11 09:34:56;;;;;;;3.90;1.50;;;;;;;11.33;nan;100579.81;6176074;28;20241;-73
2023/01/11 09:38:17;;;;;;;0.97;0.87;;;;;;;11.10;nan;100590.13;6185512;28;20232;-74
2023/01/11 09:42:00;;;;;;;2.20;1.83;;;;;;;11.23;nan;100573.63;6171380;28;20230;-70
2023/01/11 09:45:23;;;;;;;1.77;1.50;;;;;;;11.26;nan;100586.84;6207033;28;20253;-73
2023/01/11 09:48:48;;;;;;;2.53;2.33;;;;;;;11.22;nan;100580.03;6202464;28;20234;-71
2023/01/11 09:52:27;;;;;;;4.23;1.03;;;;;;;11.29;nan;100583.81;6176567;28;20252;-74
2023/01/11 09:55:51;;;;;;;2.87;1.40;;;;;;;11.19;nan;100591.97;6202263;28;20261;-71
2023/01/11 09:59:23;;;;;;;1.23;1.23;;;;;;;11.11;nan;100599.09;6199411;28;20265;-70
2023/01/11 10:02:59;;;;;;;1.17;1.07;;;;;;;11.29;nan;100597.31;6212723;28;20314;-72
2023/01/11 10:06:28;;;;;;;0.60;0.60;;;;;;;11.27;nan;100594.78;6215668;28;20282;-73
2023/01/11 10:10:04;;;;;;;2.57;1.40;;;;;;;11.18;nan;100592.94;6219158;28;20347;-71
2023/01/11 10:13:41;;;;;;;1.50;1.17;;;;;;;11.22;nan;100586.25;6207456;28;20626;-73
2023/01/11 10:17:11;;;;;;;1.10;0.97;;;;;;;11.16;nan;100589.53;6206859;28;20236;-72
2023/01/11 10:20:39;;;;;;;1.90;1.67;;;;;;;11.18;nan;100602.91;6207983;28;20349;-75
2023/01/11 10:24:06;;;;;;;1.13;1.10;;;;;;;11.23;nan;100611.41;6211475;28;20686;-74
2023/01/11 10:27:36;;;;;;;1.60;1.30;;;;;;;11.17;nan;100603.88;6199026;28;20626;-74
2023/01/11 10:31:10;;;;;;;2.97;1.30;;;;;;;11.23;nan;100616.78;6193282;28;20238;-73
2023/01/11 10:34:48;;;;;;;1.53;1.00;;;;;;;11.50;nan;100616.84;6198312;28;20236;-73
2023/01/11 10:38:39;;;;;;;2.77;1.13;;;;;;;11.34;nan;100640.06;6204883;28;20316;-71
2023/01/11 10:42:09;;;;;;;3.83;1.60;;;;;;;11.39;nan;100627.81;6196346;28;20228;-73
2023/01/11 10:45:38;;;;;;;2.47;1.10;;;;;;;11.39;nan;100635.06;6206635;28;20234;-72
2023/01/11 10:49:18;;;;;;;4.10;2.30;;;;;;;11.45;nan;100627.25;6202631;28;20262;-72
2023/01/11 10:52:46;;;;;;;2.10;1.57;;;;;;;11.43;nan;100610.31;6205419;28;20249;-74
2023/01/11 10:56:21;;;;;;;2.30;1.63;;;;;;;11.57;nan;100603.59;6203151;28;20240;-73
2023/01/11 11:00:04;;;;;;;2.93;1.27;;;;;;;11.52;nan;100606.75;6188997;28;20241;-72
2023/01/11 11:03:43;;;;;;;4.87;1.87;;;;;;;11.63;nan;100611.97;6196935;28;20252;-70
2023/01/11 11:07:11;;;;;;;2.77;2.50;;;;;;;11.84;nan;100609.03;6181812;28;20997;-71
2023/01/11 11:10:37;;;;;;;3.77;1.57;;;;;;;11.15;nan;100616.69;6201260;28;20277;-70
2023/01/11 11:14:03;;;;;;;1.40;1.00;;;;;;;11.37;nan;100612.78;6194973;28;20314;-70
2023/01/11 11:17:27;;;;;;;5.07;1.77;;;;;;;11.34;nan;100610.38;6167887;28;20617;-69
2023/01/11 11:20:50;;;;;;;2.77;1.33;;;;;;;11.27;nan;100612.78;6183571;28;20241;-70
2023/01/11 11:24:19;;;;;;;6.07;1.53;;;;;;;11.17;nan;100614.69;6189673;28;20312;-70
2023/01/11 11:27:44;;;;;;;1.97;1.87;;;;;;;11.12;nan;100622.34;6210882;28;20519;-70
2023/01/11 11:31:10;;;;;;;1.17;1.00;;;;;;;10.89;nan;100611.03;6204427;28;20257;-71
2023/01/11 11:34:30;;;;;;;1.70;1.30;;;;;;;10.99;nan;100603.78;6180137;28;20236;-70
2023/01/11 11:37:54;;;;;;;3.10;1.73;;;;;;;11.07;nan;100606.63;6173093;28;20237;-70
2023/01/11 11:41:17;;;;;;;1.03;1.03;;;;;;;11.05;nan;100619.41;6173873;28;20814;-69
2023/01/11 11:44:38;;;;;;;3.27;1.30;;;;;;;11.00;nan;100623.53;6173432;28;20234;-70
2023/01/11 11:48:05;;;;;;;2.53;1.50;;;;;;;11.17;nan;100628.16;6205349;28;20263;-74
2023/01/11 11:51:27;;;;;;;2.50;1.40;;;;;;;11.19;nan;100615.38;6172619;28;20260;-73
2023/01/11 11:54:55;;;;;;;4.67;1.70;;;;;;;11.12;nan;100625.91;6187791;28;20232;-73
2023/01/11 11:58:20;;;;;;;1.93;1.40;;;;;;;11.26;nan;100606.53;6191321;28;20232;-73
2023/01/11 12:01:45;;;;;;;2.33;1.10;;;;;;;11.10;nan;100619.81;6200693;28;20661;-73
2023/01/11 12:05:10;;;;;;;3.97;1.00;;;;;;;11.31;nan;100626.84;6217806;28;20613;-72
2023/01/11 12:08:33;;;;;;;4.17;1.87;;;;;;;11.18;nan;100625.31;6182874;28;20228;-74
2023/01/11 12:11:56;;;;;;;3.13;1.50;;;;;;;11.31;nan;100626.84;6187476;28;20229;-74
2023/01/11 12:15:20;;;;;;;4.93;1.30;;;;;;;11.04;nan;100635.72;6189762;28;20237;-73
2023/01/11 12:18:43;;;;;;;2.30;1.30;;;;;;;11.19;nan;100634.28;6180320;28;20225;-77
2023/01/11 12:22:12;;;;;;;1.57;1.10;;;;;;;11.15;nan;100636.41;6181803;28;20244;-73
2023/01/11 12:25:37;;;;;;;4.73;2.20;;;;;;;11.11;nan;100629.63;6188064;28;20542;-73
2023/01/11 12:29:28;;;;;;;5.97;1.93;;;;;;;10.97;nan;100632.75;6206633;28;20224;-72
2023/01/11 12:33:10;;;;;;;1.20;1.10;;;;;;;11.14;nan;100626.59;6178831;28;20296;-70
2023/01/11 12:36:39;;;;;;;2.30;2.10;;;;;;;11.11;nan;100631.47;6182071;28;20240;-71
2023/01/11 12:40:11;;;;;;;7.97;2.63;;;;;;;11.10;nan;100630.59;6218714;28;20322;-74
2023/01/11 12:43:46;;;;;;;2.10;1.77;;;;;;;11.07;nan;100627.34;6210833;28;20227;-72
2023/01/11 12:47:30;;;;;;;4.13;1.73;;;;;;;11.19;nan;100631.56;6206577;28;20244;-71
2023/01/11 12:51:07;;;;;;;4.57;1.77;;;;;;;11.27;nan;100627.16;6207887;28;20511;-70
2023/01/11 12:54:50;;;;;;;7.83;1.60;;;;;;;10.98;nan;100628.22;6190011;28;20291;-74
2023/01/11 12:58:20;;;;;;;2.63;1.80;;;;;;;10.94;nan;100638.44;6211941;28;20302;-73
2023/01/11 13:01:50;;;;;;;7.13;2.67;;;;;;;11.09;nan;100641.53;6208336;28;20323;-73
2023/01/11 13:05:24;;;;;;;1.97;1.70;;;;;;;11.01;nan;100642.25;6199994;28;20237;-70
2023/01/11 13:08:58;;;;;;;2.93;2.07;;;;;;;10.81;nan;100627.09;6212502;28;20235;-75
2023/01/11 13:12:22;;;;;;;1.23;1.13;;;;;;;10.93;nan;100644.00;6197309;28;20236;-73
2023/01/11 13:15:52;;;;;;;2.67;1.90;;;;;;;10.89;nan;100642.59;6212069;28;20240;-73
2023/01/11 13:19:18;;;;;;;2.30;2.10;;;;;;;10.97;nan;100645.41;6206371;28;20229;-74
2023/01/11 13:22:46;;;;;;;3.10;1.70;;;;;;;11.19;nan;100640.53;6205857;28;20248;-72
2023/01/11 13:26:18;;;;;;;3.20;2.40;;;;;;;11.78;nan;100639.34;6191139;28;20230;-72
2023/01/11 13:29:42;;;;;;;3.97;2.83;;;;;;;12.18;nan;100645.25;6199221;28;20228;-73
2023/01/11 13:33:11;;;;;;;1.37;1.27;;;;;;;12.32;nan;100657.38;6214074;28;20228;-74
2023/01/11 13:36:39;;;;;;;3.07;1.63;;;;;;;12.82;nan;100656.69;6215755;28;21031;-71
2023/01/11 13:40:12;;;;;;;2.47;1.47;;;;;;;13.32;nan;100654.22;6214687;28;20239;-73
2023/01/11 13:43:39;;;;;;;1.30;1.20;;;;;;;13.18;nan;100662.06;6216805;28;20334;-71
2023/01/11 13:47:04;;;;;;;4.40;1.90;;;;;;;13.40;nan;100667.81;6216188;28;20594;-69
2023/01/11 13:50:30;;;;;;;2.07;1.67;;;;;;;13.79;nan;100668.19;6213530;28;20338;-70
2023/01/11 13:53:57;;;;;;;1.47;1.30;;;;;;;13.71;nan;100678.13;6214986;28;20232;-72
2023/01/11 13:57:27;;;;;;;4.17;3.43;;;;;;;13.26;nan;100687.34;6205934;28;20566;-75
2023/01/11 14:00:53;;;;;;;1.63;1.53;;;;;;;12.04;nan;100695.22;6206045;28;20587;-70
2023/01/11 14:04:21;;;;;;;1.97;1.43;;;;;;;11.97;nan;100696.81;6195297;28;20311;-76
2023/01/11 14:07:54;;;;;;;2.27;1.53;;;;;;;11.78;nan;100702.31;6195674;28;20272;-74
2023/01/11 14:11:22;;;;;;;6.83;1.60;;;;;;;11.82;nan;100703.72;6194748;28;20255;-75
2023/01/11 14:15:13;;;;;;;2.83;2.00;;;;;;;12.25;nan;100710.31;6196330;28;20240;-71
2023/01/11 14:18:38;;;;;;;13.33;2.57;;;;;;;12.45;nan;100711.94;6208203;28;20232;-76
2023/01/11 14:22:11;;;;;;;3.43;1.70;;;;;;;11.88;nan;100724.75;6182839;28;20241;-74
2023/01/11 14:25:38;;;;;;;1.80;1.70;;;;;;;12.00;nan;100726.25;6202024;28;20237;-68
2023/01/11 14:29:13;;;;;;;2.57;1.40;;;;;;;11.82;nan;100721.78;6198129;28;20237;-69
2023/01/11 14:32:59;;;;;;;5.20;1.10;;;;;;;11.70;nan;100726.47;6194321;28;20236;-74
2023/01/11 14:36:40;;;;;;;4.57;3.57;;;;;;;11.37;nan;100739.63;6218372;28;20232;-78
2023/01/11 14:40:21;;;;;;;5.23;1.30;;;;;;;11.20;nan;100733.13;6200145;28;20229;-76
2023/01/11 14:43:56;;;;;;;1.70;1.40;;;;;;;11.16;nan;100743.34;6202409;28;20244;-75
2023/01/11 14:47:32;;;;;;;2.30;1.77;;;;;;;11.11;nan;100750.16;6180443;28;20228;-75
2023/01/11 14:51:17;;;;;;;4.03;1.70;;;;;;;11.02;nan;100741.06;6208686;28;20496;-72
2023/01/11 14:54:40;;;;;;;3.60;1.70;;;;;;;10.91;nan;100760.09;6199962;28;20236;-77
2023/01/11 14:58:17;;;;;;;9.53;3.00;;;;;;;10.74;nan;100771.59;6225745;28;21094;-75
2023/01/11 15:02:15;;;;;;;4.00;1.30;;;;;;;10.75;nan;100777.81;6194985;28;20229;-79
2023/01/11 15:05:42;;;;;;;2.33;1.60;;;;;;;10.66;nan;100784.06;6200076;28;20626;-76
2023/01/11 15:09:44;;;;;;;1.33;1.20;;;;;;;10.84;nan;100771.59;6208367;28;20226;-77
2023/01/11 15:13:07;;;;;;;2.97;1.20;;;;;;;10.85;nan;100784.06;6221779;28;20232;-77
2023/01/11 15:20:11;;;;;;;1.50;1.30;;;;;;;10.59;nan;100786.44;6215757;28;20635;-72
2023/01/11 15:23:35;;;;;;;3.37;2.43;;;;;;;10.59;nan;100774.81;6196547;28;20240;-74
2023/01/11 15:27:00;;;;;;;4.00;1.80;;;;;;;10.56;nan;100775.94;6177485;28;20291;-75
2023/01/11 15:30:50;;;;;;;2.47;1.57;;;;;;;10.36;nan;100771.50;6186947;28;20237;-71
2023/01/11 15:34:23;;;;;;;3.00;1.60;;;;;;;10.27;nan;100772.31;6214914;28;20240;-70
2023/01/11 15:37:50;;;;;;;3.53;1.90;;;;;;;10.15;nan;100776.97;6208614;28;20240;-74
2023/01/11 15:45:26;;;;;;;1.50;1.27;;;;;;;10.18;nan;100775.84;6190495;28;20233;-72
2023/01/11 15:49:13;;;;;;;8.27;2.17;;;;;;;10.15;nan;100776.97;6179856;28;20315;-72
2023/01/11 15:53:09;;;;;;;7.00;2.60;;;;;;;10.20;nan;100774.69;6181118;28;20240;-71
2023/01/11 15:57:05;;;;;;;1.93;1.73;;;;;;;10.12;nan;100773.66;6211430;28;20240;-71
2023/01/11 16:00:48;;;;;;;2.57;2.03;;;;;;;10.02;nan;100775.44;6206852;28;20231;-72
2023/01/11 16:04:23;;;;;;;3.30;2.00;;;;;;;10.05;nan;100773.34;6207175;28;20233;-72
2023/01/11 16:07:56;;;;;;;3.13;2.93;;;;;;;9.93;nan;100779.78;6216675;28;20236;-72
2023/01/11 16:11:27;;;;;;;3.03;1.90;;;;;;;9.97;nan;100775.84;6195254;28;20233;-72
2023/01/11 16:15:16;;;;;;;7.50;2.63;;;;;;;9.90;nan;100781.91;6196306;28;20232;-72
2023/01/11 16:18:43;;;;;;;9.97;3.03;;;;;;;9.80;nan;100787.25;6189498;28;20232;-71
2023/01/11 16:22:04;;;;;;;6.87;2.00;;;;;;;9.83;nan;100786.97;6186272;28;20266;-72
2023/01/11 16:25:29;;;;;;;3.97;2.57;;;;;;;9.85;nan;100800.28;6224936;28;20327;-72
2023/01/11 16:28:51;;;;;;;3.13;1.43;;;;;;;9.78;nan;100800.00;6198964;28;20236;-72
2023/01/11 16:32:21;;;;;;;2.47;1.73;;;;;;;9.83;nan;100805.81;6195040;28;20330;-72
2023/01/11 16:35:43;;;;;;;2.93;1.70;;;;;;;9.75;nan;100802.06;6205320;28;20316;-73
2023/01/11 16:39:09;;;;;;;2.73;2.53;;;;;;;9.68;nan;100806.31;6196970;28;20547;-72
2023/01/11 16:42:35;;;;;;;1.63;1.30;;;;;;;9.55;nan;100804.63;6193083;28;20232;-73
2023/01/11 16:45:55;;;;;;;8.07;2.43;;;;;;;9.51;nan;100805.88;6192561;28;20237;-72
2023/01/11 16:49:17;;;;;;;4.47;2.40;;;;;;;9.51;nan;100813.13;6197952;28;20233;-72
2023/01/11 16:52:45;;;;;;;7.33;3.17;;;;;;;9.39;nan;100816.84;6205054;28;20231;-72
2023/01/11 16:56:12;;;;;;;9.47;3.97;;;;;;;9.40;nan;100811.34;6195875;28;21369;-72